Time;durP1;ratioP1;P1;durP2;ratioP2;P2;SDS_P1;SDS_P2;PMS_P1;PMS_P2;Temp;Humidity;BMP_temperature;BMP_pressure;BME280_temperature;BME280_humidity;BME280_pressure;Samples;Min_cycle;Max_cycle;Signal;HPM_P1;HPM_P2
2023/10/12 00:02:38;;;;;;;2.67;1.10;;;;;;;8.79;100.00;97903.53;10435951;28;20131;-91
2023/10/12 00:07:42;;;;;;;2.22;0.63;;;;;;;8.72;100.00;97915.81;10430095;28;20052;-92
2023/10/12 00:12:47;;;;;;;2.05;0.75;;;;;;;8.76;100.00;97927.69;10454213;28;20407;-92
2023/10/12 00:17:55;;;;;;;1.98;0.63;;;;;;;8.85;100.00;97924.88;10450456;28;20036;-91
2023/10/12 00:23:10;;;;;;;2.17;0.70;;;;;;;8.85;100.00;97924.06;10403126;28;20032;-92
2023/10/12 00:28:20;;;;;;;6.05;0.90;;;;;;;8.83;100.00;97931.81;10436212;28;20052;-91
2023/10/12 00:33:23;;;;;;;1.50;0.80;;;;;;;8.92;100.00;97924.31;10451649;28;20033;-91
2023/10/12 00:38:29;;;;;;;5.68;1.33;;;;;;;8.90;100.00;97949.28;10452466;28;20048;-92
2023/10/12 00:43:36;;;;;;;1.70;0.80;;;;;;;8.90;100.00;97953.94;10438686;28;20041;-92
2023/10/12 00:48:47;;;;;;;3.20;0.68;;;;;;;8.92;100.00;97957.16;10450801;28;20037;-91
2023/10/12 00:53:55;;;;;;;0.60;0.55;;;;;;;8.97;100.00;97949.53;10411954;28;20458;-91
2023/10/12 00:58:58;;;;;;;3.40;0.90;;;;;;;9.04;100.00;97957.19;10432788;28;20053;-92
2023/10/12 01:04:01;;;;;;;3.95;0.98;;;;;;;8.99;100.00;97954.66;10428950;28;20128;-92
2023/10/12 01:09:18;;;;;;;2.17;1.15;;;;;;;8.98;100.00;97973.00;10440572;28;20048;-91
2023/10/12 01:14:26;;;;;;;2.72;0.80;;;;;;;9.04;100.00;97959.94;10434512;28;20045;-92
2023/10/12 01:19:33;;;;;;;5.78;1.27;;;;;;;9.06;100.00;97949.44;10448445;28;20048;-92
2023/10/12 01:24:36;;;;;;;3.75;0.80;;;;;;;9.09;100.00;97950.72;10410536;28;20084;-91
2023/10/12 01:29:38;;;;;;;1.98;0.75;;;;;;;8.81;100.00;97961.41;10450444;28;20037;-91
2023/10/12 01:34:49;;;;;;;2.45;0.77;;;;;;;8.69;100.00;97968.44;10435448;28;20040;-91
2023/10/12 01:40:09;;;;;;;3.65;1.15;;;;;;;8.69;100.00;97970.38;10454864;28;20056;-93
2023/10/12 01:50:25;;;;;;;2.72;0.60;;;;;;;8.78;100.00;97982.03;10433494;28;20037;-92
2023/10/12 01:55:30;;;;;;;3.60;0.85;;;;;;;8.79;100.00;97969.16;10441397;28;20064;-92
2023/10/12 02:00:42;;;;;;;4.13;0.90;;;;;;;8.71;100.00;97955.22;10424529;28;20056;-92
2023/10/12 02:05:58;;;;;;;2.28;0.80;;;;;;;8.62;100.00;97959.97;10425117;28;20048;-93
2023/10/12 02:11:10;;;;;;;1.92;0.88;;;;;;;8.54;100.00;97960.84;10428876;28;20036;-93
2023/10/12 02:16:23;;;;;;;4.25;0.93;;;;;;;8.44;100.00;97964.75;10441484;28;20048;-91
2023/10/12 02:21:26;;;;;;;2.97;0.90;;;;;;;8.41;100.00;97970.09;10428074;28;20037;-92
2023/10/12 02:37:00;;;;;;;1.45;0.57;;;;;;;8.36;100.00;97949.22;10453890;28;20037;-94
2023/10/12 02:42:17;;;;;;;3.65;0.68;;;;;;;8.31;100.00;97945.84;10424652;28;20041;-91
2023/10/12 02:47:23;;;;;;;3.28;0.70;;;;;;;8.32;99.61;97955.63;10441526;28;20712;-92
2023/10/12 02:52:27;;;;;;;3.40;0.68;;;;;;;8.33;98.25;97957.25;10439014;28;20635;-91
2023/10/12 02:57:31;;;;;;;3.03;0.75;;;;;;;8.29;99.00;97942.66;10423927;28;20423;-92
2023/10/12 03:02:34;;;;;;;2.08;0.75;;;;;;;8.26;98.20;97968.72;10432167;28;20037;-91
2023/10/12 03:07:38;;;;;;;6.65;1.73;;;;;;;8.26;97.92;97960.50;10406787;28;20530;-90
2023/10/12 03:12:44;;;;;;;4.57;0.80;;;;;;;8.22;97.59;97972.44;10455658;28;20029;-91
2023/10/12 03:17:57;;;;;;;3.95;0.68;;;;;;;8.16;97.57;97974.56;10416073;28;20041;-92
2023/10/12 03:22:59;;;;;;;4.28;0.63;;;;;;;8.14;97.42;97968.59;10454140;28;20036;-92
2023/10/12 03:28:11;;;;;;;3.40;1.02;;;;;;;8.12;97.05;97962.69;10438407;28;20141;-93
2023/10/12 03:33:15;;;;;;;2.65;0.80;;;;;;;8.06;96.43;97956.63;10455408;28;20037;-92
2023/10/12 03:38:19;;;;;;;2.28;0.80;;;;;;;8.05;95.62;97952.28;10448927;28;20044;-92
2023/10/12 03:43:28;;;;;;;4.25;0.90;;;;;;;8.07;95.54;97946.50;10469786;28;20040;-91
2023/10/12 03:48:48;;;;;;;3.40;0.77;;;;;;;8.01;95.16;97954.09;10434792;28;20404;-92
2023/10/12 03:53:56;;;;;;;3.58;0.82;;;;;;;7.97;94.49;97949.59;10430146;28;20408;-92
2023/10/12 03:58:59;;;;;;;5.20;0.90;;;;;;;7.86;94.71;97936.34;10438356;28;20747;-91
2023/10/12 04:09:21;;;;;;;3.33;0.88;;;;;;;7.79;94.34;97937.97;10447886;28;20493;-91
2023/10/12 04:19:44;;;;;;;3.25;0.73;;;;;;;7.82;93.45;97940.06;10460451;28;20490;-89
2023/10/12 04:24:48;;;;;;;4.20;0.82;;;;;;;7.74;94.64;97949.06;10409993;28;20041;-88
2023/10/12 04:29:56;;;;;;;4.85;0.80;;;;;;;7.73;94.24;97942.00;10477062;28;20049;-91
2023/10/12 04:34:59;;;;;;;;;;;;;;;7.73;93.63;97933.81;10426597;28;20407;-91
2023/10/12 04:40:16;;;;;;;2.53;0.88;;;;;;;7.70;93.75;97926.28;10426288;28;19920;-91
2023/10/12 04:50:27;;;;;;;5.53;1.10;;;;;;;7.59;93.81;97914.13;10467254;28;20049;-90
2023/10/12 04:55:34;;;;;;;4.40;0.80;;;;;;;7.57;93.89;97912.53;10433373;28;20518;-92
2023/10/12 05:00:55;;;;;;;2.70;0.80;;;;;;;7.52;94.19;97912.72;10450395;28;20045;-90
2023/10/12 05:06:04;;;;;;;3.25;0.60;;;;;;;7.59;92.58;97887.66;10440163;28;20557;-90
2023/10/12 05:11:08;;;;;;;4.43;0.90;;;;;;;7.64;92.42;97906.59;10455898;28;20040;-90
2023/10/12 05:16:14;;;;;;;5.88;0.88;;;;;;;7.89;91.11;97893.91;10454039;28;20128;-90
2023/10/12 05:21:18;;;;;;;6.80;0.90;;;;;;;8.83;86.71;97875.19;10457372;28;20049;-90
2023/10/12 05:26:25;;;;;;;2.80;0.95;;;;;;;9.49;83.92;97875.06;10458326;28;20459;-91
2023/10/12 05:31:28;;;;;;;2.22;0.60;;;;;;;9.46;81.45;97872.22;10449041;28;20419;-89
2023/10/12 05:36:31;;;;;;;4.30;1.30;;;;;;;10.01;80.43;97887.28;10458609;28;20251;-90
2023/10/12 05:41:34;;;;;;;3.05;0.95;;;;;;;10.25;78.42;97871.63;10457743;28;20037;-90
2023/10/12 05:46:38;;;;;;;2.22;0.80;;;;;;;10.81;77.31;97871.66;10457315;28;20045;-87
2023/10/12 05:51:44;;;;;;;5.07;1.20;;;;;;;10.23;77.16;97868.41;10455670;28;20055;-91
2023/10/12 05:56:49;;;;;;;1.67;0.98;;;;;;;10.78;75.31;97857.84;10482659;28;20504;-92
2023/10/12 06:01:53;;;;;;;4.72;1.20;;;;;;;10.81;75.96;97857.13;10463027;28;20056;-92
2023/10/12 06:06:55;;;;;;;3.60;0.70;;;;;;;10.09;77.59;97848.00;10472959;28;20086;-94
2023/10/12 06:11:59;;;;;;;3.10;0.88;;;;;;;11.18;74.76;97844.78;10408196;28;20141;-93
2023/10/12 06:17:02;;;;;;;4.90;0.93;;;;;;;10.92;74.93;97830.75;10441423;28;20055;-91
2023/10/12 06:22:39;;;;;;;6.40;1.17;;;;;;;11.63;71.85;97832.56;10423398;28;20032;-92
2023/10/12 06:27:37;;;;;;;4.78;1.23;;;;;;;10.97;72.54;97825.03;10444273;28;20063;-91
2023/10/12 06:32:40;;;;;;;3.33;1.05;;;;;;;10.92;72.98;97819.78;10459027;28;20041;-92
2023/10/12 06:53:34;;;;;;;4.90;0.93;;;;;;;9.49;78.83;97765.59;10484638;28;20066;-93
2023/10/12 06:58:36;;;;;;;3.45;1.40;;;;;;;9.48;78.90;97772.22;10450375;28;20060;-92
2023/10/12 07:03:40;;;;;;;1.63;0.65;;;;;;;9.57;78.26;97783.03;10426874;28;20041;-94
2023/10/12 07:08:46;;;;;;;5.28;0.80;;;;;;;9.60;79.05;97769.47;10401586;28;20540;-93
2023/10/12 07:13:49;;;;;;;4.10;0.80;;;;;;;9.76;78.21;97755.84;10400976;28;20041;-93
2023/10/12 07:18:53;;;;;;;4.18;0.75;;;;;;;9.83;77.50;97764.28;10399599;28;20053;-93
2023/10/12 07:23:56;;;;;;;4.15;0.50;;;;;;;9.64;76.64;97753.13;10383117;28;20041;-93
2023/10/12 07:29:07;;;;;;;2.58;0.57;;;;;;;9.60;77.08;97741.28;10413647;28;20512;-93
2023/10/12 07:34:15;;;;;;;2.05;0.52;;;;;;;9.58;76.64;97727.16;10416356;28;20037;-94
2023/10/12 07:39:38;;;;;;;;;;;;;;;9.65;75.02;97724.63;10429409;28;20519;-93
2023/10/12 07:44:42;;;;;;;0.85;0.40;;;;;;;9.70;74.26;97727.09;10436041;28;19920;-93
2023/10/12 07:49:49;;;;;;;2.15;1.02;;;;;;;9.65;74.63;97708.19;10452091;28;20051;-92
2023/10/12 08:05:15;;;;;;;3.88;0.77;;;;;;;9.77;74.55;97710.91;10499665;28;20051;-73
2023/10/12 08:10:29;;;;;;;2.08;0.70;;;;;;;9.94;73.34;97721.56;10537296;22;20656;-76
2023/10/12 08:20:58;;;;;;;2.10;0.60;;;;;;;10.37;72.00;97692.59;10500687;28;20048;-74
2023/10/12 08:26:03;;;;;;;3.60;1.00;;;;;;;10.15;72.62;97698.66;10535048;22;20425;-61
2023/10/12 08:31:06;;;;;;;2.33;0.60;;;;;;;10.01;73.53;97690.81;10526365;28;20067;-63
2023/10/12 08:52:04;;;;;;;6.20;1.17;;;;;;;8.99;83.77;97733.91;10483563;28;20048;-73
2023/10/12 08:57:20;;;;;;;3.75;0.50;;;;;;;8.28;85.82;97752.56;10453597;28;20059;-75
2023/10/12 09:02:22;;;;;;;1.30;0.35;;;;;;;7.88;83.69;97733.16;10463149;28;20063;-75
2023/10/12 09:07:37;;;;;;;2.83;0.80;;;;;;;7.75;84.15;97735.03;10449322;28;20045;-75
2023/10/12 09:12:40;;;;;;;1.95;0.50;;;;;;;7.97;84.57;97731.94;10458069;28;20044;-72
2023/10/12 09:17:44;;;;;;;2.40;0.63;;;;;;;8.23;83.54;97722.72;10480079;28;20127;-71
2023/10/12 09:22:56;;;;;;;1.95;0.52;;;;;;;8.35;84.69;97731.00;10463235;28;20047;-73
2023/10/12 09:27:59;;;;;;;3.20;0.80;;;;;;;8.30;86.17;97742.88;10458236;28;20539;-71
2023/10/12 09:33:44;;;;;;;3.25;0.75;;;;;;;8.58;86.14;97754.03;10460582;28;20044;-75
2023/10/12 09:38:30;;;;;;;0.80;0.50;;;;;;;8.41;85.90;97729.63;10444301;28;20044;-74
2023/10/12 09:43:38;;;;;;;2.25;0.60;;;;;;;8.56;85.92;97726.25;10478539;28;20045;-74
2023/10/12 09:48:44;;;;;;;2.10;0.63;;;;;;;8.47;86.86;97788.38;10412089;28;20052;-73
2023/10/12 09:53:58;;;;;;;1.60;0.63;;;;;;;6.59;88.63;97792.75;10426601;28;20041;-73
2023/10/12 09:59:13;;;;;;;1.10;0.40;;;;;;;5.99;94.01;97759.06;10460880;28;20063;-73
2023/10/12 10:14:35;;;;;;;0.57;0.38;;;;;;;6.34;98.60;97748.91;10436479;28;20037;-73
2023/10/12 10:19:38;;;;;;;3.60;0.32;;;;;;;6.54;97.75;97747.41;10487413;28;20419;-73
2023/10/12 10:24:43;;;;;;;4.47;0.77;;;;;;;6.91;97.20;97728.66;10484692;28;20049;-73
2023/10/12 10:29:56;;;;;;;4.20;1.23;;;;;;;7.23;97.88;97722.56;10476324;28;20612;-73
2023/10/12 10:35:04;;;;;;;3.00;0.77;;;;;;;7.49;96.87;97727.06;10480683;28;20038;-73
2023/10/12 10:40:09;;;;;;;2.53;0.77;;;;;;;7.77;94.40;97711.72;10462191;28;20033;-72
2023/10/12 10:45:12;;;;;;;3.15;0.95;;;;;;;8.07;91.94;97717.88;10459741;28;20041;-73
2023/10/12 10:50:15;;;;;;;2.60;0.45;;;;;;;8.27;88.74;97709.97;10442301;28;20040;-73
2023/10/12 10:55:24;;;;;;;3.00;0.88;;;;;;;8.43;88.57;97735.56;10450734;28;20068;-73
2023/10/12 11:00:39;;;;;;;2.80;0.75;;;;;;;8.66;88.05;97714.88;10452938;28;20045;-73
2023/10/12 11:05:43;;;;;;;4.53;0.80;;;;;;;8.73;86.71;97708.84;10472289;28;20340;-71
2023/10/12 11:16:21;;;;;;;3.42;0.70;;;;;;;8.93;84.64;97702.47;10430077;28;20504;-71
2023/10/12 11:21:25;;;;;;;1.60;0.63;;;;;;;9.02;83.73;97705.06;10452987;28;20040;-72
2023/10/12 11:26:39;;;;;;;1.63;0.57;;;;;;;9.13;79.75;97728.09;10479739;28;20048;-73
2023/10/12 11:31:46;;;;;;;1.05;0.30;;;;;;;9.10;79.18;97723.31;10468996;28;20048;-73
2023/10/12 11:36:57;;;;;;;0.80;0.50;;;;;;;9.19;75.09;97745.88;10435454;28;20044;-73
2023/10/12 11:42:04;;;;;;;1.58;0.30;;;;;;;9.15;74.83;97761.38;10450554;28;20040;-73
2023/10/12 11:47:07;;;;;;;3.55;0.70;;;;;;;9.05;74.21;97764.59;10464549;28;20059;-73
2023/10/12 11:52:15;;;;;;;2.88;1.23;;;;;;;9.04;75.39;97763.00;10472095;28;20533;-73
2023/10/12 11:57:17;;;;;;;1.40;0.60;;;;;;;9.00;77.06;97778.47;10455983;28;20423;-74
2023/10/12 12:02:22;;;;;;;0.88;0.47;;;;;;;8.36;78.99;97754.44;10450398;28;20411;-73
2023/10/12 12:07:25;;;;;;;4.13;1.27;;;;;;;7.85;80.69;97767.41;10462823;28;21202;-73
2023/10/12 12:12:27;;;;;;;2.05;0.63;;;;;;;7.54;80.02;97803.25;10447488;28;20472;-73
2023/10/12 12:17:30;;;;;;;2.47;0.52;;;;;;;7.55;80.08;97792.00;10446797;28;20047;-72
2023/10/12 12:22:42;;;;;;;1.60;0.57;;;;;;;7.78;80.20;97797.16;10460386;28;20037;-73
2023/10/12 12:27:59;;;;;;;4.68;0.60;;;;;;;8.41;79.92;97795.22;10432297;28;20064;-73
2023/10/12 12:33:20;;;;;;;1.60;0.63;;;;;;;8.70;76.22;97797.81;10461859;28;20056;-74
2023/10/12 12:38:34;;;;;;;3.42;0.93;;;;;;;8.57;75.96;97803.56;10461298;28;20037;-72
2023/10/12 12:43:37;;;;;;;0.40;0.40;;;;;;;8.57;74.39;97819.97;10472852;28;20397;-73
2023/10/12 12:48:40;;;;;;;1.95;0.70;;;;;;;8.22;77.43;97824.94;10472952;28;20044;-74
2023/10/12 12:53:46;;;;;;;4.18;0.65;;;;;;;8.20;78.58;97832.66;10460113;28;20040;-75
2023/10/12 12:58:49;;;;;;;2.38;0.50;;;;;;;8.23;77.64;97838.25;10457620;28;20060;-74
2023/10/12 13:03:52;;;;;;;1.35;0.47;;;;;;;8.40;75.73;97857.25;10431396;28;20032;-73
2023/10/12 13:08:54;;;;;;;2.35;0.40;;;;;;;8.13;77.98;97902.25;10469339;28;20037;-73
2023/10/12 13:13:56;;;;;;;2.15;0.50;;;;;;;7.47;84.58;97877.44;10445286;28;20048;-71
2023/10/12 13:18:59;;;;;;;0.90;0.50;;;;;;;7.23;87.81;97864.38;10487074;22;20566;-68
2023/10/12 13:24:02;;;;;;;2.67;0.65;;;;;;;7.52;87.16;97885.44;10515432;28;20052;-67
2023/10/12 13:29:05;;;;;;;3.30;0.70;;;;;;;7.76;85.96;97884.81;10506282;28;20032;-67
2023/10/12 13:34:10;;;;;;;1.55;0.40;;;;;;;8.03;85.72;97894.47;10506876;22;20064;-72
2023/10/12 13:39:12;;;;;;;3.70;0.60;;;;;;;8.25;83.93;97895.28;10495422;28;20044;-71
2023/10/12 13:44:19;;;;;;;2.42;0.20;;;;;;;8.34;80.04;97898.78;10474586;28;20139;-68
2023/10/12 13:49:22;;;;;;;1.13;0.45;;;;;;;8.49;78.33;97927.41;10481986;28;20064;-69
2023/10/12 13:54:25;;;;;;;0.85;0.75;;;;;;;8.67;76.98;97916.00;10486430;28;20032;-68
2023/10/12 13:59:30;;;;;;;1.95;0.60;;;;;;;8.67;76.62;97946.06;10481768;28;20041;-70
2023/10/12 14:04:35;;;;;;;1.67;0.40;;;;;;;8.51;80.53;97969.72;10484409;28;20041;-73
2023/10/12 14:09:39;;;;;;;2.03;0.40;;;;;;;7.91;83.52;97968.09;10481571;28;20037;-71
2023/10/12 14:14:41;;;;;;;1.30;0.40;;;;;;;7.86;82.10;97979.22;10466605;28;20043;-71
2023/10/12 14:19:43;;;;;;;4.40;0.50;;;;;;;7.84;83.12;97997.84;10448554;28;20037;-70
2023/10/12 14:24:47;;;;;;;0.60;0.40;;;;;;;7.91;83.51;97995.41;10470652;28;20063;-71
2023/10/12 14:29:52;;;;;;;0.40;0.22;;;;;;;7.97;81.55;98015.13;10468914;28;20033;-71
2023/10/12 14:34:55;;;;;;;0.57;0.30;;;;;;;7.96;81.16;98027.19;10471988;28;20048;-70
2023/10/12 14:39:57;;;;;;;1.25;0.43;;;;;;;7.99;81.11;98043.72;10472523;28;20041;-71
2023/10/12 14:45:06;;;;;;;0.88;0.40;;;;;;;8.04;81.95;98045.47;10481976;28;20033;-72
2023/10/12 14:50:16;;;;;;;1.73;0.70;;;;;;;7.98;81.66;98061.22;10486133;28;20548;-73
2023/10/12 14:55:20;;;;;;;1.30;0.60;;;;;;;7.95;82.85;98077.47;10483791;28;20044;-72
2023/10/12 15:00:25;;;;;;;0.52;0.50;;;;;;;7.93;83.92;98085.97;10502720;28;20066;-72
2023/10/12 15:05:32;;;;;;;1.70;0.88;;;;;;;7.89;84.06;98089.69;10469657;28;20051;-72
2023/10/12 15:10:36;;;;;;;1.27;0.75;;;;;;;7.85;84.88;98106.72;10486094;28;20045;-72
2023/10/12 15:15:39;;;;;;;1.05;0.35;;;;;;;7.83;84.25;98100.78;10485568;28;20053;-71
2023/10/12 15:20:44;;;;;;;1.10;0.40;;;;;;;7.91;82.74;98101.88;10484481;28;20527;-72
2023/10/12 15:25:48;;;;;;;0.80;0.40;;;;;;;8.07;81.75;98111.16;10462522;28;20071;-71
2023/10/12 15:30:52;;;;;;;1.70;0.40;;;;;;;8.18;81.07;98122.53;10484292;28;20049;-71
2023/10/12 15:35:54;;;;;;;0.77;0.45;;;;;;;8.28;79.20;98124.09;10483130;28;20052;-71
2023/10/12 15:40:59;;;;;;;1.08;0.30;;;;;;;8.40;78.28;98127.78;10485000;28;20033;-71
2023/10/12 15:46:11;;;;;;;0.93;0.35;;;;;;;8.50;76.76;98142.19;10479082;28;20043;-72
2023/10/12 15:51:19;;;;;;;0.73;0.52;;;;;;;8.43;77.78;98154.44;10463118;28;20416;-73
2023/10/12 15:56:22;;;;;;;1.05;0.68;;;;;;;8.31;79.38;98148.81;10485481;28;20527;-71
2023/10/12 16:01:24;;;;;;;1.23;0.50;;;;;;;7.94;80.10;98158.56;10482770;28;20056;-72
2023/10/12 16:06:26;;;;;;;0.70;0.30;;;;;;;7.91;80.93;98164.69;10473454;28;20487;-71
2023/10/12 16:11:28;;;;;;;3.28;0.70;;;;;;;7.97;81.36;98201.63;10477845;28;20519;-72
2023/10/12 16:16:31;;;;;;;0.75;0.75;;;;;;;7.44;85.88;98185.59;10485529;28;20052;-72
2023/10/12 16:21:33;;;;;;;0.65;0.30;;;;;;;7.20;88.23;98205.16;10506400;28;20037;-73
2023/10/12 16:26:37;;;;;;;0.65;0.20;;;;;;;7.27;89.70;98208.19;10485697;28;20677;-72
2023/10/12 16:31:39;;;;;;;0.20;0.20;;;;;;;7.24;90.33;98217.81;10482999;28;20424;-72
2023/10/12 16:36:41;;;;;;;0.77;0.35;;;;;;;7.26;90.56;98209.31;10453036;28;20043;-74
2023/10/12 16:41:44;;;;;;;1.20;0.70;;;;;;;7.32;90.89;98205.34;10497759;28;20048;-73
2023/10/12 16:46:47;;;;;;;1.02;0.50;;;;;;;7.47;89.75;98215.78;10479300;28;20048;-72
2023/10/12 16:51:52;;;;;;;1.17;0.63;;;;;;;7.60;87.68;98222.19;10484222;28;20637;-75
2023/10/12 16:56:55;;;;;;;0.88;0.30;;;;;;;7.65;85.71;98213.88;10479670;28;20064;-73
2023/10/12 17:01:58;;;;;;;1.02;0.35;;;;;;;7.80;82.10;98218.81;10469761;28;20041;-70
2023/10/12 17:07:00;;;;;;;1.02;0.30;;;;;;;7.95;77.08;98233.09;10481675;28;20032;-73
2023/10/12 17:12:03;;;;;;;1.08;0.55;;;;;;;8.01;74.35;98212.72;10488647;28;20058;-73
2023/10/12 17:17:07;;;;;;;0.73;0.30;;;;;;;7.97;73.97;98201.63;10479638;28;20029;-71
2023/10/12 17:22:11;;;;;;;1.83;0.50;;;;;;;7.96;74.27;98213.66;10477741;28;20668;-70
2023/10/12 17:27:16;;;;;;;0.85;0.40;;;;;;;7.89;74.79;98216.09;10470473;28;20040;-70
2023/10/12 17:32:18;;;;;;;0.30;0.28;;;;;;;7.82;74.25;98235.69;10483116;28;20053;-69
2023/10/12 17:37:22;;;;;;;1.73;0.60;;;;;;;7.82;74.52;98229.44;10481404;28;20407;-70
2023/10/12 17:42:25;;;;;;;0.60;0.50;;;;;;;7.85;73.89;98243.25;10482088;28;20055;-69
2023/10/12 17:47:27;;;;;;;1.67;0.65;;;;;;;8.05;71.51;98251.91;10479625;28;20040;-69
2023/10/12 17:52:30;;;;;;;1.38;0.40;;;;;;;8.23;70.25;98237.09;10457992;28;20636;-70
2023/10/12 17:57:33;;;;;;;0.95;0.22;;;;;;;8.18;69.40;98255.59;10470785;28;20061;-68
2023/10/12 18:02:41;;;;;;;1.42;0.57;;;;;;;8.22;69.67;98254.63;10474895;28;20036;-69
2023/10/12 18:07:43;;;;;;;1.38;0.50;;;;;;;8.28;69.28;98272.44;10459046;28;20389;-68
2023/10/12 18:12:47;;;;;;;3.25;0.30;;;;;;;8.29;69.38;98268.56;10472574;28;20045;-66
2023/10/12 18:17:50;;;;;;;0.98;0.45;;;;;;;8.18;69.78;98280.19;10472774;28;20033;-66
2023/10/12 18:22:52;;;;;;;1.67;0.45;;;;;;;8.11;69.77;98267.78;10487362;28;20423;-67
2023/10/12 18:27:54;;;;;;;0.30;0.20;;;;;;;8.16;68.63;98275.03;10462482;28;20042;-67
2023/10/12 18:33:00;;;;;;;0.40;0.40;;;;;;;8.00;69.36;98279.38;10448058;28;20432;-67
2023/10/12 18:38:03;;;;;;;2.00;0.50;;;;;;;7.91;67.63;98282.09;10485001;28;20036;-67
2023/10/12 18:43:11;;;;;;;1.63;0.40;;;;;;;7.86;67.25;98306.84;10476857;28;20052;-68
2023/10/12 18:48:14;;;;;;;0.52;0.45;;;;;;;7.79;65.96;98296.38;10482662;28;20032;-69
2023/10/12 18:53:16;;;;;;;0.90;0.38;;;;;;;7.68;66.47;98303.28;10471238;28;20036;-68
2023/10/12 18:58:20;;;;;;;0.40;0.20;;;;;;;7.63;67.05;98310.81;10453637;28;20060;-69
2023/10/12 19:03:22;;;;;;;1.00;0.40;;;;;;;7.48;68.22;98312.88;10463220;28;20041;-69
2023/10/12 19:08:27;;;;;;;1.08;0.30;;;;;;;7.42;67.96;98297.78;10479694;28;20048;-69
2023/10/12 19:13:29;;;;;;;1.55;0.47;;;;;;;7.44;68.49;98308.38;10483045;28;20512;-69
2023/10/12 19:18:32;;;;;;;0.63;0.30;;;;;;;7.41;67.73;98304.34;10476258;28;20040;-69
2023/10/12 19:23:35;;;;;;;1.73;1.00;;;;;;;7.29;68.85;98300.63;10455371;28;20091;-70
2023/10/12 19:28:38;;;;;;;0.85;0.40;;;;;;;7.27;69.01;98306.41;10472295;28;20508;-69
2023/10/12 19:33:41;;;;;;;0.68;0.40;;;;;;;7.19;69.36;98293.53;10485442;28;20591;-67
2023/10/12 19:38:48;;;;;;;1.17;0.30;;;;;;;7.14;70.16;98296.44;10464569;28;20531;-67
2023/10/12 19:43:50;;;;;;;0.40;0.40;;;;;;;7.20;69.93;98306.88;10479822;28;20044;-68
2023/10/12 19:48:52;;;;;;;0.50;0.30;;;;;;;7.21;69.43;98321.31;10476992;28;20038;-68
2023/10/12 19:53:55;;;;;;;0.68;0.40;;;;;;;7.27;68.54;98328.22;10479624;28;20049;-68
2023/10/12 19:58:58;;;;;;;0.40;0.20;;;;;;;7.36;68.86;98334.53;10478976;28;20047;-69
2023/10/12 20:04:00;;;;;;;1.63;0.30;;;;;;;7.32;68.47;98327.28;10474302;28;20043;-68
2023/10/12 20:09:12;;;;;;;1.45;0.40;;;;;;;7.34;68.62;98339.50;10485109;28;20048;-68
2023/10/12 20:14:14;;;;;;;0.63;0.30;;;;;;;7.37;69.41;98347.03;10487869;28;20538;-69
2023/10/12 20:19:16;;;;;;;0.75;0.45;;;;;;;7.29;70.39;98352.44;10462258;28;20033;-69
2023/10/12 20:24:19;;;;;;;2.08;0.60;;;;;;;7.23;70.66;98340.88;10484696;28;20045;-69
2023/10/12 20:29:23;;;;;;;1.40;0.32;;;;;;;7.19;70.75;98351.63;10483125;28;20037;-70
2023/10/12 20:34:25;;;;;;;0.28;0.28;;;;;;;7.17;70.73;98355.78;10438833;28;20072;-68
2023/10/12 20:39:29;;;;;;;1.27;0.30;;;;;;;7.17;70.93;98353.06;10433953;28;20037;-68
2023/10/12 20:44:32;;;;;;;0.38;0.20;;;;;;;7.06;71.58;98357.97;10421778;28;20061;-69
2023/10/12 20:49:39;;;;;;;0.43;0.20;;;;;;;7.03;72.62;98374.16;10429575;28;20045;-69
2023/10/12 20:54:42;;;;;;;0.60;0.30;;;;;;;7.03;73.07;98374.16;10429770;28;20057;-69
2023/10/12 20:59:47;;;;;;;1.80;0.50;;;;;;;7.00;72.33;98385.69;10434053;28;21202;-69
2023/10/12 21:04:50;;;;;;;0.80;0.32;;;;;;;6.94;72.53;98393.19;10429657;28;20037;-68
2023/10/12 21:10:01;;;;;;;0.50;0.30;;;;;;;6.91;72.76;98405.53;10436799;28;20033;-67
2023/10/12 21:15:05;;;;;;;0.40;0.30;;;;;;;6.94;72.16;98398.63;10428222;28;20053;-70
2023/10/12 21:20:28;;;;;;;0.35;0.20;;;;;;;6.93;72.37;98408.75;10426015;28;20515;-69
2023/10/12 21:25:33;;;;;;;3.40;0.68;;;;;;;6.85;73.40;98419.59;10436663;28;20523;-68
2023/10/12 21:30:36;;;;;;;1.55;0.47;;;;;;;6.81;73.89;98424.06;10438039;28;20064;-69
2023/10/12 21:35:45;;;;;;;0.47;0.22;;;;;;;6.76;73.51;98433.16;10439686;28;20064;-68
2023/10/12 21:40:50;;;;;;;0.60;0.20;;;;;;;6.73;73.82;98444.69;10419534;28;20033;-68
2023/10/12 21:45:53;;;;;;;1.65;0.38;;;;;;;6.66;73.96;98452.50;10437705;28;20041;-68
2023/10/12 21:50:58;;;;;;;0.47;0.25;;;;;;;6.63;74.37;98453.13;10445755;28;21427;-69
2023/10/12 21:56:02;;;;;;;0.50;0.20;;;;;;;6.57;74.96;98465.25;10426929;28;20041;-69
2023/10/12 22:01:08;;;;;;;0.63;0.30;;;;;;;6.50;75.01;98459.41;10455187;28;20028;-69
2023/10/12 22:06:15;;;;;;;1.15;0.30;;;;;;;6.51;74.58;98472.72;10456868;28;20045;-69
2023/10/12 22:11:20;;;;;;;0.93;0.30;;;;;;;6.49;75.20;98495.97;10445869;28;20037;-69
2023/10/12 22:16:32;;;;;;;0.55;0.40;;;;;;;6.43;75.22;98499.91;10444975;28;20052;-69
2023/10/12 22:21:38;;;;;;;1.48;0.38;;;;;;;6.50;76.13;98511.19;10447710;28;20044;-69
2023/10/12 22:26:41;;;;;;;1.95;0.22;;;;;;;6.60;75.38;98516.41;10468704;28;20041;-69
2023/10/12 22:31:44;;;;;;;0.43;0.30;;;;;;;6.60;76.31;98535.50;10426523;28;20428;-69
2023/10/12 22:36:49;;;;;;;2.53;0.50;;;;;;;6.52;76.29;98537.00;10485337;28;20036;-69
2023/10/12 22:41:51;;;;;;;0.70;0.30;;;;;;;6.42;77.33;98541.84;10486056;28;20052;-69
2023/10/12 22:46:54;;;;;;;1.00;0.32;;;;;;;6.38;77.39;98554.47;10488983;28;20049;-69
2023/10/12 22:51:56;;;;;;;2.63;0.45;;;;;;;6.38;77.32;98557.22;10474577;28;20041;-69
2023/10/12 22:56:59;;;;;;;1.10;0.30;;;;;;;6.32;76.78;98579.13;10477774;28;20048;-70
2023/10/12 23:02:01;;;;;;;0.52;0.20;;;;;;;6.32;76.02;98583.75;10485597;28;20033;-70
2023/10/12 23:07:04;;;;;;;0.30;0.20;;;;;;;6.35;76.53;98594.03;10484997;28;20048;-69
2023/10/12 23:12:11;;;;;;;0.50;0.20;;;;;;;6.37;76.58;98610.88;10486168;28;20036;-68
2023/10/12 23:17:15;;;;;;;0.20;0.20;;;;;;;6.37;74.92;98619.06;10483376;28;20036;-69
2023/10/12 23:27:30;;;;;;;1.58;0.30;;;;;;;6.40;75.08;98629.34;10464163;28;20041;-69
2023/10/12 23:32:33;;;;;;;0.40;0.20;;;;;;;6.42;75.14;98626.31;10476133;28;20523;-69
2023/10/12 23:37:57;;;;;;;1.27;0.40;;;;;;;6.44;75.53;98637.75;10473665;28;20412;-69
2023/10/12 23:42:58;;;;;;;0.57;0.15;;;;;;;6.46;75.30;98643.69;10478688;28;20428;-69
2023/10/12 23:48:11;;;;;;;1.80;0.40;;;;;;;6.43;74.63;98650.56;10470703;28;20060;-69
2023/10/12 23:53:17;;;;;;;1.17;0.28;;;;;;;6.43;75.01;98666.09;10461167;28;20553;-69
2023/10/12 23:58:20;;;;;;;0.45;0.20;;;;;;;6.49;73.77;98679.31;10483801;28;20037;-69
